Time;durP1;ratioP1;P1;durP2;ratioP2;P2;SDS_P1;SDS_P2;PMS_P1;PMS_P2;Temp;Humidity;BMP_temperature;BMP_pressure;BME280_temperature;BME280_humidity;BME280_pressure;Samples;Min_cycle;Max_cycle;Signal;HPM_P1;HPM_P2
2022/11/18 00:00:12;;;;;;;0.50;0.50;;;;;;;6.60;96.37;95097.66;29395;223;63008;-61
2022/11/18 00:00:43;;;;;;;0.50;0.50;;;;;;;6.59;96.87;95101.47;29395;228;63019;-62
2022/11/18 00:01:18;;;;;;;0.57;0.57;;;;;;;6.61;96.80;95099.25;29395;261;63009;-64
2022/11/18 00:01:49;;;;;;;0.50;0.50;;;;;;;6.61;96.94;95099.25;29395;250;63005;-62
2022/11/18 00:02:20;;;;;;;0.50;0.50;;;;;;;6.62;96.88;95100.84;29395;271;63009;-62
2022/11/18 00:02:52;;;;;;;0.60;0.60;;;;;;;6.61;96.75;95093.88;29394;243;64009;-63
2022/11/18 00:03:23;;;;;;;0.50;0.50;;;;;;;6.61;97.09;95101.94;29395;231;63014;-63
2022/11/18 00:03:55;;;;;;;0.50;0.50;;;;;;;6.61;97.11;95099.25;29395;298;63005;-61
2022/11/18 00:04:26;;;;;;;0.50;0.50;;;;;;;6.63;97.00;95097.03;29395;222;63009;-64
2022/11/18 00:04:57;;;;;;;0.52;0.52;;;;;;;6.63;96.91;95102.44;29395;203;63004;-63
2022/11/18 00:05:28;;;;;;;0.60;0.60;;;;;;;6.63;96.60;95099.75;29395;210;63023;-67
2022/11/18 00:05:59;;;;;;;0.50;0.50;;;;;;;6.64;96.61;95098.63;29395;220;63004;-62
2022/11/18 00:06:31;;;;;;;0.50;0.50;;;;;;;6.64;96.88;95104.03;29395;225;63009;-62
2022/11/18 00:07:02;;;;;;;0.40;0.40;;;;;;;6.66;96.85;95101.81;29395;210;63004;-62
2022/11/18 00:07:33;;;;;;;0.50;0.50;;;;;;;6.65;96.51;95102.13;29395;286;63017;-62
2022/11/18 00:08:05;;;;;;;0.50;0.50;;;;;;;6.63;96.66;95099.75;29394;297;64009;-62
2022/11/18 00:08:36;;;;;;;0.50;0.50;;;;;;;6.61;96.56;95099.25;29395;246;63009;-61
2022/11/18 00:09:08;;;;;;;0.60;0.60;;;;;;;6.60;96.56;95092.28;29394;214;64009;-62
2022/11/18 00:09:39;;;;;;;0.55;0.55;;;;;;;6.59;97.05;95096.06;29394;210;64013;-61
2022/11/18 00:10:10;;;;;;;0.50;0.50;;;;;;;6.59;96.91;95098.78;29395;199;63005;-61
2022/11/18 00:10:42;;;;;;;0.50;0.50;;;;;;;6.57;96.97;95098.31;29395;220;63009;-61
2022/11/18 00:14:35;;;;;;;0.50;0.50;;;;;;;6.63;97.61;95099.75;29395;206;63004;-61
2022/11/18 00:15:07;;;;;;;0.50;0.50;;;;;;;6.63;97.18;95097.03;29395;324;63008;-60
2022/11/18 00:15:38;;;;;;;0.55;0.55;;;;;;;6.63;97.12;95097.03;29394;299;64009;-62
2022/11/18 00:16:11;;;;;;;0.50;0.50;;;;;;;6.61;97.12;95104.66;29395;220;63009;-62
2022/11/18 00:16:43;;;;;;;0.50;0.50;;;;;;;6.60;97.33;95102.25;29395;273;63005;-62
2022/11/18 00:17:15;;;;;;;0.50;0.50;;;;;;;6.59;97.30;95101.47;29395;200;63009;-60
2022/11/18 00:17:46;;;;;;;0.50;0.50;;;;;;;6.57;97.65;95095.62;29395;254;63012;-62
2022/11/18 00:18:17;;;;;;;0.50;0.50;;;;;;;6.56;98.02;95098.63;29395;293;63009;-62
2022/11/18 00:18:48;;;;;;;0.50;0.50;;;;;;;6.54;98.23;95104.31;29395;208;63005;-62
2022/11/18 00:19:22;;;;;;;0.50;0.50;;;;;;;6.53;98.54;95101.94;29395;292;63009;-62
2022/11/18 00:19:54;;;;;;;0.50;0.50;;;;;;;6.54;98.32;95103.53;29394;207;64009;-63
2022/11/18 00:20:25;;;;;;;0.50;0.50;;;;;;;6.54;98.30;95101.63;29395;220;63004;-62
2022/11/18 00:21:04;;;;;;;0.50;0.50;;;;;;;6.55;98.49;95103.22;29395;214;63004;-62
2022/11/18 00:21:35;;;;;;;0.47;0.47;;;;;;;6.55;98.42;95100.53;29395;210;63008;-62
2022/11/18 00:22:10;;;;;;;0.50;0.50;;;;;;;6.54;98.38;95093.53;29395;211;63004;-63
2022/11/18 00:22:41;;;;;;;0.50;0.50;;;;;;;6.59;98.00;95096.06;29395;204;63015;-62
2022/11/18 00:23:13;;;;;;;0.40;0.40;;;;;;;6.65;97.92;95100.22;29395;227;63005;-61
2022/11/18 00:23:44;;;;;;;0.50;0.50;;;;;;;6.66;97.90;95098.31;29395;288;63009;-61
2022/11/18 00:24:16;;;;;;;0.50;0.50;;;;;;;6.65;97.86;95097.53;29395;202;63005;-61
2022/11/18 00:24:50;;;;;;;0.50;0.50;;;;;;;6.62;97.68;95095.47;29395;273;63009;-61
2022/11/18 00:25:22;;;;;;;0.50;0.50;;;;;;;6.60;98.20;95092.28;29394;215;64009;-62
2022/11/18 00:25:53;;;;;;;0.50;0.50;;;;;;;6.58;98.47;95097.22;29395;261;63009;-60
2022/11/18 00:26:24;;;;;;;0.50;0.50;;;;;;;6.56;98.42;95096.72;29395;210;63004;-61
2022/11/18 00:26:57;;;;;;;0.50;0.50;;;;;;;6.55;98.53;95094.34;29395;226;63009;-61
2022/11/18 00:27:31;;;;;;;0.50;0.50;;;;;;;6.59;98.33;95090.69;29395;213;63006;-62
2022/11/18 00:28:03;;;;;;;0.50;0.50;;;;;;;6.60;98.20;95092.28;29395;219;63009;-64
2022/11/18 00:28:35;;;;;;;0.50;0.50;;;;;;;6.64;98.33;95093.25;29395;213;63004;-63
2022/11/18 00:29:09;;;;;;;0.50;0.50;;;;;;;6.64;97.93;95095.94;29395;228;63015;-61
2022/11/18 00:29:40;;;;;;;0.50;0.50;;;;;;;6.63;97.65;95099.75;29395;196;63004;-61
2022/11/18 00:30:15;;;;;;;0.50;0.50;;;;;;;6.61;97.89;95093.88;29394;280;64014;-63
2022/11/18 00:30:46;;;;;;;0.40;0.40;;;;;;;6.59;97.59;95093.37;29395;208;63005;-62
2022/11/18 00:31:17;;;;;;;0.50;0.50;;;;;;;6.62;97.73;95090.06;29395;214;63009;-61
2022/11/18 00:31:49;;;;;;;0.40;0.40;;;;;;;6.66;97.89;95096.41;29395;224;63005;-61
2022/11/18 00:32:20;;;;;;;0.50;0.50;;;;;;;6.66;97.77;95095.62;29395;256;63009;-61
2022/11/18 00:32:51;;;;;;;0.50;0.50;;;;;;;6.65;97.53;95104.81;29395;256;63005;-60
2022/11/18 00:33:23;;;;;;;0.50;0.50;;;;;;;6.62;97.55;95106.22;29395;199;63009;-62
2022/11/18 00:33:55;;;;;;;0.50;0.50;;;;;;;6.60;97.95;95097.66;29395;226;63010;-62
2022/11/18 00:34:26;;;;;;;0.50;0.50;;;;;;;6.60;97.96;95103.06;29395;207;63009;-62
2022/11/18 00:34:58;;;;;;;0.50;0.50;;;;;;;6.59;98.06;95097.97;29395;218;63004;-60
2022/11/18 00:35:29;;;;;;;0.60;0.60;;;;;;;6.59;98.19;95101.47;29394;209;64013;-60
2022/11/18 00:36:00;;;;;;;0.60;0.60;;;;;;;6.59;98.50;95101.47;29395;206;63004;-61
2022/11/18 00:36:32;;;;;;;0.55;0.55;;;;;;;6.59;98.55;95106.84;29395;202;63008;-62
2022/11/18 00:37:03;;;;;;;0.50;0.50;;;;;;;6.59;98.41;95106.84;29395;205;63004;-61
2022/11/18 00:37:34;;;;;;;0.50;0.50;;;;;;;6.59;98.53;95103.38;29395;199;63009;-60
2022/11/18 00:38:05;;;;;;;0.60;0.60;;;;;;;6.59;99.07;95114.94;29395;219;63005;-60
2022/11/18 00:38:38;;;;;;;0.50;0.50;;;;;;;6.56;99.40;95107.50;29395;260;63009;-61
2022/11/18 00:39:14;;;;;;;0.50;0.50;;;;;;;6.56;99.52;95112.88;29395;209;63005;-61
2022/11/18 00:39:45;;;;;;;0.50;0.50;;;;;;;6.55;99.70;95114.00;29395;219;63009;-61
2022/11/18 00:40:17;;;;;;;0.50;0.50;;;;;;;6.60;99.31;95113.03;29395;226;63005;-62
2022/11/18 00:40:49;;;;;;;0.50;0.50;;;;;;;6.58;99.47;95113.38;29394;220;64013;-61
2022/11/18 00:41:22;;;;;;;0.50;0.50;;;;;;;6.59;99.35;95106.06;29395;211;63009;-62
2022/11/18 00:42:51;;;;;;;0.60;0.60;;;;;;;6.57;99.46;95114.47;29395;236;63004;-62
2022/11/18 00:43:22;;;;;;;0.60;0.60;;;;;;;6.58;100.00;95116.06;29395;257;63015;-61
2022/11/18 00:43:53;;;;;;;0.50;0.50;;;;;;;6.57;99.88;95114.47;29395;285;63004;-61
2022/11/18 00:44:25;;;;;;;0.50;0.50;;;;;;;6.56;99.83;95118.28;29395;224;63008;-62
2022/11/18 00:44:56;;;;;;;0.50;0.50;;;;;;;6.60;99.74;95119.22;29395;202;63005;-62
2022/11/18 00:45:27;;;;;;;0.50;0.50;;;;;;;6.61;99.22;95115.41;29395;216;63009;-61
2022/11/18 00:45:59;;;;;;;0.50;0.50;;;;;;;6.60;99.23;95116.53;29394;250;64009;-62
2022/11/18 00:46:30;;;;;;;0.50;0.50;;;;;;;6.59;99.47;95117.63;29395;279;63009;-61
2022/11/18 00:47:02;;;;;;;0.60;0.60;;;;;;;6.58;99.55;95110.69;29395;259;63011;-62
2022/11/18 00:47:34;;;;;;;0.50;0.50;;;;;;;6.57;99.75;95119.88;29395;272;63009;-61
2022/11/18 00:48:05;;;;;;;0.50;0.50;;;;;;;6.57;99.96;95119.88;29395;266;63005;-64
2022/11/18 00:48:37;;;;;;;0.50;0.50;;;;;;;6.57;99.78;95109.09;29395;229;63009;-63
2022/11/18 00:49:09;;;;;;;0.60;0.60;;;;;;;6.58;99.75;95116.06;29395;247;63004;-61
2022/11/18 00:49:40;;;;;;;0.50;0.50;;;;;;;6.56;99.40;95118.28;29395;237;63009;-62
2022/11/18 00:50:12;;;;;;;0.57;0.57;;;;;;;6.54;99.41;95115.09;29394;202;64009;-63
2022/11/18 00:50:43;;;;;;;0.50;0.50;;;;;;;6.56;99.73;95112.09;29395;209;63009;-63
2022/11/18 00:51:17;;;;;;;0.60;0.60;;;;;;;6.59;99.50;95120.31;29394;299;64009;-63
2022/11/18 00:51:48;;;;;;;0.50;0.50;;;;;;;6.57;99.35;95119.88;29395;202;63008;-63
2022/11/18 00:52:20;;;;;;;0.50;0.50;;;;;;;6.57;99.56;95116.37;29395;234;63004;-63
2022/11/18 00:52:51;;;;;;;0.50;0.50;;;;;;;6.56;99.49;95112.88;29395;262;63009;-62
2022/11/18 00:53:25;;;;;;;0.50;0.50;;;;;;;6.54;99.81;95115.09;29395;204;63011;-62
2022/11/18 00:53:56;;;;;;;0.47;0.47;;;;;;;6.55;99.70;95116.69;29394;198;64014;-61
2022/11/18 00:54:27;;;;;;;0.50;0.50;;;;;;;6.55;100.00;95118.59;29395;243;63005;-62
2022/11/18 00:54:58;;;;;;;0.50;0.50;;;;;;;6.57;100.00;95114.47;29395;200;63009;-64
2022/11/18 00:55:30;;;;;;;0.50;0.50;;;;;;;6.59;99.80;95120.31;29395;370;63005;-62
2022/11/18 00:56:02;;;;;;;0.50;0.50;;;;;;;6.58;99.58;95113.38;29395;222;63027;-62
2022/11/18 00:56:33;;;;;;;0.50;0.50;;;;;;;6.57;100.00;95122.56;29394;202;64009;-63
2022/11/18 00:57:04;;;;;;;0.50;0.50;;;;;;;6.55;100.00;95111.31;29395;202;63009;-61
2022/11/18 00:57:35;;;;;;;0.50;0.50;;;;;;;6.54;100.00;95115.09;29395;207;63004;-63
2022/11/18 00:58:07;;;;;;;0.50;0.50;;;;;;;6.54;100.00;95114.31;29395;240;63018;-62
2022/11/18 00:58:38;;;;;;;0.50;0.50;;;;;;;6.55;100.00;95121.28;29395;223;63004;-61
2022/11/18 00:59:10;;;;;;;0.50;0.50;;;;;;;6.54;100.00;95112.41;29395;290;63016;-63
2022/11/18 00:59:42;;;;;;;0.50;0.50;;;;;;;6.56;100.00;95112.88;29395;263;63004;-63
2022/11/18 01:00:14;;;;;;;0.50;0.50;;;;;;;6.56;100.00;95118.28;29395;199;63009;-63
2022/11/18 01:00:51;;;;;;;0.50;0.50;;;;;;;6.55;100.00;95111.31;29395;246;63005;-62
2022/11/18 01:01:22;;;;;;;0.50;0.50;;;;;;;6.57;100.00;95114.47;29395;263;63009;-63
2022/11/18 01:01:55;;;;;;;0.50;0.50;;;;;;;6.56;100.00;95118.28;29394;254;64009;-62
2022/11/18 01:02:26;;;;;;;0.50;0.50;;;;;;;6.53;100.00;95118.09;29395;222;63009;-60
2022/11/18 01:02:57;;;;;;;0.55;0.55;;;;;;;6.52;100.00;95111.12;29395;208;63005;-63
2022/11/18 01:03:32;;;;;;;0.60;0.60;;;;;;;6.50;100.00;95119.50;29395;214;63009;-62
2022/11/18 01:04:04;;;;;;;0.50;0.50;;;;;;;6.51;100.00;95114.91;29395;218;63004;-62
2022/11/18 01:04:35;;;;;;;0.50;0.50;;;;;;;6.52;100.00;95116.50;29394;207;64013;-63
2022/11/18 01:05:07;;;;;;;0.50;0.50;;;;;;;6.53;100.00;95118.91;29395;212;63004;-63
2022/11/18 01:05:39;;;;;;;0.50;0.50;;;;;;;6.57;100.00;95119.88;29394;213;64013;-62
2022/11/18 01:06:10;;;;;;;0.60;0.60;;;;;;;6.60;100.00;95124.63;29395;238;63004;-62
2022/11/18 01:06:42;;;;;;;0.50;0.50;;;;;;;6.62;100.00;95119.72;29394;220;64009;-62
2022/11/18 01:07:13;;;;;;;0.50;0.50;;;;;;;6.62;100.00;95116.22;29395;215;63005;-62
2022/11/18 01:07:45;;;;;;;0.50;0.50;;;;;;;6.59;100.00;95120.31;29395;219;63009;-62
2022/11/18 01:08:18;;;;;;;0.50;0.50;;;;;;;6.57;100.00;95119.88;29395;224;63005;-63
2022/11/18 01:08:49;;;;;;;0.50;0.50;;;;;;;6.57;100.00;95117.19;29395;257;63009;-62
2022/11/18 01:09:24;;;;;;;0.60;0.60;;;;;;;6.54;100.00;95115.09;29395;203;63005;-63
2022/11/18 01:09:57;;;;;;;0.50;0.50;;;;;;;6.55;100.00;95122.06;29394;221;64013;-62
2022/11/18 01:10:28;;;;;;;0.50;0.50;;;;;;;6.54;100.00;95123.19;29395;223;63005;-63
2022/11/18 01:13:18;;;;;;;0.50;0.50;;;;;;;6.56;100.00;95115.59;29395;269;63013;-63
2022/11/18 01:13:30;;;;;;;0.50;0.50;;;;;;;6.57;100.00;95119.06;29394;228;64008;-62
2022/11/18 01:14:01;;;;;;;0.50;0.50;;;;;;;6.54;100.00;95115.09;29395;224;63008;-64
2022/11/18 01:14:32;;;;;;;0.50;0.50;;;;;;;6.55;100.00;95115.87;29395;254;63005;-64
2022/11/18 01:15:05;;;;;;;0.60;0.60;;;;;;;6.52;100.00;95114.59;29395;266;63019;-62
2022/11/18 01:15:40;;;;;;;0.50;0.50;;;;;;;6.50;100.00;95119.50;29395;239;63005;-64
2022/11/18 01:16:18;;;;;;;0.50;0.50;;;;;;;6.49;100.00;95120.63;29395;202;63009;-63
2022/11/18 01:16:54;;;;;;;0.50;0.50;;;;;;;6.48;100.00;95120.94;29395;212;63005;-62
2022/11/18 01:17:25;;;;;;;0.50;0.50;;;;;;;6.46;100.00;95107.75;29395;222;63009;-63
2022/11/18 01:17:56;;;;;;;0.50;0.50;;;;;;;6.46;100.00;95121.22;29395;222;63005;-63
2022/11/18 01:18:30;;;;;;;0.50;0.50;;;;;;;6.45;100.00;95126.94;29395;216;63009;-63
2022/11/18 01:19:01;;;;;;;0.50;0.50;;;;;;;6.45;100.00;95116.16;29394;197;64009;-63
2022/11/18 01:19:32;;;;;;;0.52;0.52;;;;;;;6.47;100.00;95125.53;29395;268;63009;-62
2022/11/18 01:20:04;;;;;;;0.50;0.50;;;;;;;6.50;100.00;95124.09;29395;203;63004;-63
2022/11/18 01:20:36;;;;;;;0.50;0.50;;;;;;;6.51;100.00;95114.91;29395;244;63018;-63
2022/11/18 01:21:07;;;;;;;0.50;0.50;;;;;;;6.51;100.00;95114.91;29395;258;63004;-62
2022/11/18 01:21:38;;;;;;;0.50;0.50;;;;;;;6.54;100.00;95115.09;29395;249;63008;-64
2022/11/18 01:22:09;;;;;;;0.50;0.50;;;;;;;6.54;100.00;95123.19;29395;212;63005;-64
2022/11/18 01:22:41;;;;;;;0.50;0.50;;;;;;;6.53;100.00;95121.59;29394;247;64014;-63
2022/11/18 01:23:14;;;;;;;0.50;0.50;;;;;;;6.58;100.00;95115.28;29395;297;63005;-62
2022/11/18 01:23:45;;;;;;;0.50;0.50;;;;;;;6.58;100.00;95121.47;29395;272;63009;-62
2022/11/18 01:24:17;;;;;;;0.50;0.50;;;;;;;6.57;100.00;95119.88;29395;234;63005;-62
2022/11/18 01:24:48;;;;;;;0.50;0.50;;;;;;;6.57;100.00;95122.56;29395;273;63009;-62
2022/11/18 01:25:19;;;;;;;0.50;0.50;;;;;;;6.56;100.00;95123.66;29395;260;63005;-64
2022/11/18 01:25:50;;;;;;;0.60;0.60;;;;;;;6.55;100.00;95116.69;29394;198;64013;-64
2022/11/18 01:26:22;;;;;;;0.50;0.50;;;;;;;6.53;100.00;95124.28;29395;196;63004;-65
2022/11/18 01:26:53;;;;;;;0.50;0.50;;;;;;;6.54;100.00;95123.19;29395;210;63009;-65
2022/11/18 01:27:24;;;;;;;0.50;0.50;;;;;;;6.53;100.00;95121.59;29395;197;63004;-63
2022/11/18 01:27:56;;;;;;;0.40;0.40;;;;;;;6.53;100.00;95126.97;29395;265;63009;-64
2022/11/18 01:28:27;;;;;;;0.60;0.60;;;;;;;6.52;100.00;95120.00;29395;220;63004;-65
2022/11/18 01:28:58;;;;;;;0.60;0.60;;;;;;;6.54;100.00;95122.37;29395;206;63008;-65
2022/11/18 01:29:30;;;;;;;0.50;0.50;;;;;;;6.54;100.00;95120.50;29395;219;63005;-63
2022/11/18 01:30:01;;;;;;;0.50;0.50;;;;;;;6.54;100.00;95117.00;29395;215;63009;-65
2022/11/18 01:30:37;;;;;;;0.57;0.57;;;;;;;6.54;100.00;95120.50;29395;279;63005;-65
2022/11/18 01:31:11;;;;;;;0.50;0.50;;;;;;;6.55;100.00;95121.28;29394;239;64013;-65
2022/11/18 01:31:42;;;;;;;0.50;0.50;;;;;;;6.53;100.00;95118.91;29395;292;63008;-63
2022/11/18 01:32:13;;;;;;;0.60;0.60;;;;;;;6.52;100.00;95122.69;29395;244;63009;-64
2022/11/18 01:32:45;;;;;;;0.50;0.50;;;;;;;6.52;100.00;95117.31;29395;199;63005;-65
2022/11/18 01:33:16;;;;;;;0.50;0.50;;;;;;;6.51;100.00;95120.31;29395;256;63009;-65
2022/11/18 01:33:47;;;;;;;0.50;0.50;;;;;;;6.50;100.00;95126.81;29395;203;63004;-63
2022/11/18 01:34:18;;;;;;;0.50;0.50;;;;;;;6.50;100.00;95124.91;29395;197;63009;-64
2022/11/18 01:34:50;;;;;;;0.50;0.50;;;;;;;6.49;100.00;95125.22;29395;203;63004;-66
2022/11/18 01:35:22;;;;;;;0.50;0.50;;;;;;;6.48;100.00;95127.09;29395;270;63009;-65
2022/11/18 01:35:53;;;;;;;0.50;0.50;;;;;;;6.48;100.00;95120.94;29395;279;63004;-65
2022/11/18 01:36:26;;;;;;;0.50;0.50;;;;;;;6.47;100.00;95128.22;29394;203;64013;-66
2022/11/18 01:36:58;;;;;;;0.60;0.60;;;;;;;6.46;100.00;95118.53;29395;219;63005;-66
2022/11/18 01:37:29;;;;;;;0.50;0.50;;;;;;;6.45;100.00;95116.94;29395;262;63009;-65
2022/11/18 01:38:00;;;;;;;0.50;0.50;;;;;;;6.45;100.00;95122.34;29395;235;63005;-64
2022/11/18 01:38:31;;;;;;;0.50;0.50;;;;;;;6.45;100.00;95127.72;29395;278;63009;-65
2022/11/18 01:39:03;;;;;;;0.50;0.50;;;;;;;6.45;100.00;95124.22;29395;205;63005;-66
2022/11/18 01:39:34;;;;;;;0.60;0.60;;;;;;;6.46;100.00;95125.81;29395;273;63020;-64
2022/11/18 01:40:11;;;;;;;0.50;0.50;;;;;;;6.46;100.00;95123.13;29395;197;63005;-65
2022/11/18 01:40:42;;;;;;;0.50;0.50;;;;;;;6.46;100.00;95134.69;29394;252;64013;-65
2022/11/18 01:41:14;;;;;;;0.50;0.50;;;;;;;6.45;100.00;95127.72;29395;203;63004;-65
2022/11/18 01:41:45;;;;;;;0.50;0.50;;;;;;;6.46;100.00;95133.91;29395;221;63009;-65
2022/11/18 01:42:17;;;;;;;0.50;0.50;;;;;;;6.46;100.00;95129.31;29394;197;64009;-66
2022/11/18 01:42:48;;;;;;;0.50;0.50;;;;;;;6.46;100.00;95137.41;29395;293;63009;-66
2022/11/18 01:43:21;;;;;;;0.50;0.50;;;;;;;6.46;100.00;95133.91;29395;199;63004;-65
2022/11/18 01:43:56;;;;;;;0.50;0.50;;;;;;;6.46;100.00;95137.41;29395;222;63008;-64
2022/11/18 01:45:13;;;;;;;0.52;0.52;;;;;;;6.48;100.00;95131.69;29395;211;63005;-65
2022/11/18 01:45:47;;;;;;;0.50;0.50;;;;;;;6.49;100.00;95141.38;29394;228;64009;-66
2022/11/18 01:46:19;;;;;;;0.50;0.50;;;;;;;6.48;100.00;95143.28;29395;240;63009;-65
2022/11/18 01:46:51;;;;;;;0.50;0.50;;;;;;;6.49;100.00;95138.69;29395;276;63005;-66
2022/11/18 01:47:25;;;;;;;0.50;0.50;;;;;;;6.49;100.00;95138.69;29395;235;63009;-64
2022/11/18 01:48:38;;;;;;;0.60;0.60;;;;;;;6.50;100.00;95141.06;29395;223;63004;-67
2022/11/18 01:49:13;;;;;;;0.60;0.60;;;;;;;6.50;100.00;95141.06;29417;270;63009;-61
2022/11/18 01:49:45;;;;;;;0.50;0.50;;;;;;;6.49;100.00;95139.47;29394;208;64009;-64
2022/11/18 01:50:19;;;;;;;0.50;0.50;;;;;;;6.49;100.00;95144.88;29395;206;63017;-66
2022/11/18 01:51:05;;;;;;;0.50;0.50;;;;;;;6.49;100.00;95139.47;29395;266;63004;-66
2022/11/18 01:51:52;;;;;;;0.50;0.50;;;;;;;6.51;100.00;95148.06;29395;203;63008;-68
2022/11/18 01:52:23;;;;;;;0.50;0.50;;;;;;;6.50;100.00;95141.06;29394;222;64009;-64
2022/11/18 01:53:01;;;;;;;0.50;0.50;;;;;;;6.53;100.00;95136.97;29395;274;63009;-66
2022/11/18 01:53:36;;;;;;;0.40;0.40;;;;;;;6.53;100.00;95142.34;29395;208;63005;-65
2022/11/18 01:54:15;;;;;;;0.50;0.50;;;;;;;6.53;100.00;95140.44;29395;218;63009;-65
2022/11/18 01:54:54;;;;;;;0.50;0.50;;;;;;;6.57;100.00;95141.44;29395;202;63005;-66
2022/11/18 01:55:30;;;;;;;0.50;0.50;;;;;;;6.58;100.00;95148.41;29395;245;63009;-65
2022/11/18 01:56:07;;;;;;;0.50;0.50;;;;;;;6.56;100.00;95147.91;29394;224;64009;-66
2022/11/18 01:56:46;;;;;;;0.50;0.50;;;;;;;6.55;100.00;95151.72;29394;287;64013;-66
2022/11/18 01:57:21;;;;;;;0.50;0.50;;;;;;;6.54;100.00;95143.94;29395;271;63004;-67
2022/11/18 01:58:01;;;;;;;0.50;0.50;;;;;;;6.54;100.00;95150.12;29395;272;63008;-66
2022/11/18 01:58:40;;;;;;;0.50;0.50;;;;;;;6.54;100.00;95149.34;29417;220;63004;-65
2022/11/18 01:59:17;;;;;;;0.50;0.50;;;;;;;6.53;100.00;95151.22;29395;260;63009;-66
2022/11/18 01:59:53;;;;;;;0.57;0.57;;;;;;;6.53;100.00;95151.22;29395;301;63005;-66
2022/11/18 02:00:24;;;;;;;0.50;0.50;;;;;;;6.53;100.00;95153.94;29395;200;63009;-68
2022/11/18 02:00:56;;;;;;;0.50;0.50;;;;;;;6.53;100.00;95151.22;29395;218;63005;-66
2022/11/18 02:01:28;;;;;;;0.50;0.50;;;;;;;6.55;100.00;95156.31;29395;258;63020;-67
2022/11/18 02:02:05;;;;;;;0.50;0.50;;;;;;;6.54;100.00;95152.03;29394;254;63997;-68
2022/11/18 02:02:36;;;;;;;0.50;0.50;;;;;;;6.55;100.00;95159.00;29395;197;63015;-67
2022/11/18 02:03:08;;;;;;;0.50;0.50;;;;;;;6.55;100.00;95156.31;29394;226;64009;-67
2022/11/18 02:03:41;;;;;;;0.50;0.50;;;;;;;6.54;100.00;95155.50;29395;219;63009;-68
2022/11/18 02:04:17;;;;;;;0.50;0.50;;;;;;;6.55;100.00;95159.81;29395;199;63004;-69
2022/11/18 02:04:51;;;;;;;0.50;0.50;;;;;;;6.57;100.00;95159.50;29395;213;63009;-69
2022/11/18 02:05:24;;;;;;;0.50;0.50;;;;;;;6.56;100.00;95160.59;29395;215;63008;-66
2022/11/18 02:05:58;;;;;;;0.50;0.50;;;;;;;6.59;100.00;95159.94;29394;230;64013;-67
2022/11/18 02:06:30;;;;;;;0.50;0.50;;;;;;;6.60;100.00;95156.16;29395;213;63005;-69
2022/11/18 02:07:02;;;;;;;0.50;0.50;;;;;;;6.61;100.00;95158.53;29395;197;63009;-69
2022/11/18 02:07:38;;;;;;;0.50;0.50;;;;;;;6.62;100.00;95165.53;29395;203;63012;-68
2022/11/18 02:08:09;;;;;;;0.50;0.50;;;;;;;6.61;100.00;95169.31;29395;197;63011;-68
2022/11/18 02:08:42;;;;;;;0.50;0.50;;;;;;;6.61;100.00;95160.44;29395;260;63005;-68
2022/11/18 02:09:15;;;;;;;0.47;0.47;;;;;;;6.60;100.00;95159.66;29395;226;63019;-67
2022/11/18 02:09:46;;;;;;;0.50;0.50;;;;;;;6.60;100.00;95167.72;29395;233;63005;-68
2022/11/18 02:10:21;;;;;;;0.50;0.50;;;;;;;6.60;100.00;95167.72;29395;245;63009;-68
2022/11/18 02:10:54;;;;;;;0.50;0.50;;;;;;;6.60;100.00;95164.25;29394;205;64009;-67
2022/11/18 02:12:14;;;;;;;0.50;0.50;;;;;;;6.57;100.00;95168.37;29395;215;63007;-69
2022/11/18 02:12:46;;;;;;;0.50;0.50;;;;;;;6.58;100.00;95169.16;29395;273;63009;-68
2022/11/18 02:13:18;;;;;;;0.50;0.50;;;;;;;6.57;100.00;95168.37;29394;255;63998;-67
2022/11/18 02:13:49;;;;;;;0.50;0.50;;;;;;;6.56;100.00;95166.78;29395;209;63009;-69
2022/11/18 02:14:41;;;;;;;0.50;0.50;;;;;;;6.58;100.00;95169.97;29395;203;63005;-68
2022/11/18 02:15:12;;;;;;;0.60;0.60;;;;;;;6.59;100.00;95166.13;29417;281;63009;-68
2022/11/18 02:16:14;;;;;;;0.50;0.50;;;;;;;6.65;100.00;95169.50;29395;244;63005;-70
2022/11/18 02:17:33;;;;;;;0.55;0.55;;;;;;;6.63;100.00;95164.41;29417;217;63005;-68
2022/11/18 02:18:39;;;;;;;0.60;0.60;;;;;;;6.61;100.00;95163.13;29395;203;63009;-68
2022/11/18 02:20:06;;;;;;;0.50;0.50;;;;;;;6.60;100.00;95167.72;29394;268;64009;-70
2022/11/18 02:20:45;;;;;;;0.50;0.50;;;;;;;6.63;100.00;95164.41;29394;199;64013;-71
2022/11/18 02:22:10;;;;;;;0.50;0.50;;;;;;;6.62;100.00;95170.13;29395;298;63004;-68
2022/11/18 02:23:20;;;;;;;0.50;0.50;;;;;;;6.63;100.00;95172.50;29395;233;63009;-59
2022/11/18 02:24:26;;;;;;;0.50;0.50;;;;;;;6.62;100.00;95165.53;29395;282;63009;-68
2022/11/18 02:25:33;;;;;;;0.50;0.50;;;;;;;6.61;100.00;95163.13;29395;294;63000;-70
2022/11/18 02:26:53;;;;;;;0.50;0.50;;;;;;;6.59;100.00;95166.13;29394;213;64013;-71
2022/11/18 02:28:18;;;;;;;0.50;0.50;;;;;;;6.58;100.00;95167.28;29395;237;63004;-68
2022/11/18 02:29:23;;;;;;;0.50;0.50;;;;;;;6.56;100.00;95172.16;29395;226;63016;-71
2022/11/18 02:30:07;;;;;;;0.60;0.60;;;;;;;6.56;100.00;95168.69;29395;224;63009;-68
2022/11/18 02:30:59;;;;;;;0.50;0.50;;;;;;;6.56;100.00;95166.78;29395;203;63009;-71
2022/11/18 02:32:01;;;;;;;0.50;0.50;;;;;;;6.56;100.00;95161.41;29394;240;64009;-71
2022/11/18 02:32:48;;;;;;;0.52;0.52;;;;;;;6.56;100.00;95169.47;29417;244;63009;-71
2022/11/18 02:33:44;;;;;;;0.55;0.55;;;;;;;6.56;100.00;95166.78;29394;246;64009;-68
2022/11/18 02:34:39;;;;;;;0.50;0.50;;;;;;;6.55;100.00;95165.19;29394;198;64013;-68
2022/11/18 02:35:30;;;;;;;0.50;0.50;;;;;;;6.54;100.00;95166.28;29395;235;63004;-70
2022/11/18 02:36:20;;;;;;;0.52;0.52;;;;;;;6.53;100.00;95170.09;29417;293;63025;-70
2022/11/18 02:36:58;;;;;;;0.55;0.55;;;;;;;6.54;100.00;95168.19;29395;274;63005;-69
2022/11/18 02:37:53;;;;;;;0.50;0.50;;;;;;;6.53;100.00;95166.59;29395;197;63009;-72
2022/11/18 02:38:33;;;;;;;0.50;0.50;;;;;;;6.53;100.00;95167.41;29395;197;63000;-71
2022/11/18 02:39:13;;;;;;;0.50;0.50;;;;;;;6.52;100.00;95165.81;29394;250;64013;-71
2022/11/18 02:39:58;;;;;;;0.50;0.50;;;;;;;6.52;100.00;95173.88;29395;226;63005;-70
2022/11/18 02:40:37;;;;;;;0.50;0.50;;;;;;;6.52;100.00;95175.78;29395;253;63009;-69
2022/11/18 02:41:13;;;;;;;0.50;0.50;;;;;;;6.52;100.00;95176.59;29395;248;63004;-70
2022/11/18 02:41:47;;;;;;;0.50;0.50;;;;;;;6.53;100.00;95174.69;29395;252;63009;-70
2022/11/18 02:42:22;;;;;;;0.60;0.60;;;;;;;6.53;100.00;95166.59;29395;202;63004;-69
2022/11/18 02:43:05;;;;;;;0.50;0.50;;;;;;;6.53;100.00;95178.19;29395;288;63009;-71
2022/11/18 02:44:01;;;;;;;0.50;0.50;;;;;;;6.51;100.00;95172.31;29396;213;63004;-69
2022/11/18 02:44:34;;;;;;;0.50;0.50;;;;;;;6.52;100.00;95165.81;29394;225;64014;-69
2022/11/18 02:45:12;;;;;;;0.52;0.52;;;;;;;6.52;100.00;95175.78;29395;274;63005;-69
2022/11/18 02:45:48;;;;;;;0.50;0.50;;;;;;;6.51;100.00;95164.22;29395;299;63027;-68
2022/11/18 02:46:26;;;;;;;0.50;0.50;;;;;;;6.52;100.00;95176.59;29395;222;63005;-67
2022/11/18 02:47:03;;;;;;;0.50;0.50;;;;;;;6.60;100.00;95162.34;29395;215;63009;-70
2022/11/18 02:47:36;;;;;;;0.50;0.50;;;;;;;6.60;100.00;95172.31;29395;198;63009;-71
2022/11/18 02:48:10;;;;;;;0.50;0.50;;;;;;;6.58;100.00;95169.16;29395;208;63009;-68
2022/11/18 02:48:47;;;;;;;0.50;0.50;;;;;;;6.56;100.00;95172.16;29395;245;63004;-63
2022/11/18 02:49:28;;;;;;;0.50;0.50;;;;;;;6.54;100.00;95169.00;29395;235;63009;-70
2022/11/18 02:50:03;;;;;;;0.60;0.60;;;;;;;6.55;100.00;95175.97;29416;218;64008;-70
2022/11/18 02:50:37;;;;;;;0.50;0.50;;;;;;;6.55;100.00;95165.19;29395;206;63008;-70
2022/11/18 02:51:11;;;;;;;0.50;0.50;;;;;;;6.56;100.00;95165.97;29395;197;63004;-69
2022/11/18 02:51:46;;;;;;;0.50;0.50;;;;;;;6.55;100.00;95161.69;29395;197;63009;-71
2022/11/18 02:52:20;;;;;;;0.50;0.50;;;;;;;6.55;100.00;95170.59;29395;247;63010;-69
2022/11/18 02:52:56;;;;;;;0.50;0.50;;;;;;;6.57;100.00;95168.37;29395;197;63009;-67
2022/11/18 02:53:30;;;;;;;0.60;0.60;;;;;;;6.57;100.00;95168.37;29394;197;64005;-73
2022/11/18 02:54:06;;;;;;;0.50;0.50;;;;;;;6.57;100.00;95171.06;29395;200;63009;-69
2022/11/18 02:54:41;;;;;;;0.50;0.50;;;;;;;6.56;100.00;95164.09;29395;222;63005;-71
2022/11/18 02:55:14;;;;;;;0.50;0.50;;;;;;;6.55;100.00;95169.78;29394;289;64013;-71
2022/11/18 02:55:47;;;;;;;0.50;0.50;;;;;;;6.54;100.00;95166.28;29395;235;63010;-72
2022/11/18 02:56:20;;;;;;;0.50;0.50;;;;;;;6.54;100.00;95168.19;29395;210;63009;-69
2022/11/18 02:56:53;;;;;;;0.50;0.50;;;;;;;6.53;100.00;95167.41;29395;198;63004;-68